地図

経路データ

SID SEASON NUMBER BASIN SUBBASIN NAME ISO_TIME NATURE LAT LON WMO_WIND WMO_PRES WMO_AGENCY TRACK_TYPE DIST2LAND LANDFALL IFLAG USA_AGENCY USA_ATCF_ID USA_LAT USA_LON USA_RECORD USA_STATUS USA_WIND USA_PRES USA_SSHS USA_R34_NE USA_R34_SE USA_R34_SW USA_R34_NW USA_R50_NE USA_R50_SE USA_R50_SW USA_R50_NW USA_R64_NE USA_R64_SE USA_R64_SW USA_R64_NW USA_POCI USA_ROCI USA_RMW USA_EYE TOKYO_LAT TOKYO_LON TOKYO_GRADE TOKYO_WIND TOKYO_PRES TOKYO_R50_DIR TOKYO_R50_LONG TOKYO_R50_SHORT TOKYO_R30_DIR TOKYO_R30_LONG TOKYO_R30_SHORT TOKYO_LAND CMA_LAT CMA_LON CMA_CAT CMA_WIND CMA_PRES HKO_LAT HKO_LON HKO_CAT HKO_WIND HKO_PRES NEWDELHI_LAT NEWDELHI_LON NEWDELHI_GRADE NEWDELHI_WIND NEWDELHI_PRES NEWDELHI_CI NEWDELHI_DP NEWDELHI_POCI REUNION_LAT REUNION_LON REUNION_TYPE REUNION_WIND REUNION_PRES REUNION_TNUM REUNION_CI REUNION_RMW REUNION_R34_NE REUNION_R34_SE REUNION_R34_SW REUNION_R34_NW REUNION_R50_NE REUNION_R50_SE REUNION_R50_SW REUNION_R50_NW REUNION_R64_NE REUNION_R64_SE REUNION_R64_SW REUNION_R64_NW BOM_LAT BOM_LON BOM_TYPE BOM_WIND BOM_PRES BOM_TNUM BOM_CI BOM_RMW BOM_R34_NE BOM_R34_SE BOM_R34_SW BOM_R34_NW BOM_R50_NE BOM_R50_SE BOM_R50_SW BOM_R50_NW BOM_R64_NE BOM_R64_SE BOM_R64_SW BOM_R64_NW BOM_ROCI BOM_POCI BOM_EYE BOM_POS_METHOD BOM_PRES_METHOD NADI_LAT NADI_LON NADI_CAT NADI_WIND NADI_PRES WELLINGTON_LAT WELLINGTON_LON WELLINGTON_WIND WELLINGTON_PRES DS824_LAT DS824_LON DS824_STAGE DS824_WIND DS824_PRES TD9636_LAT TD9636_LON TD9636_STAGE TD9636_WIND TD9636_PRES TD9635_LAT TD9635_LON TD9635_WIND TD9635_PRES TD9635_ROCI NEUMANN_LAT NEUMANN_LON NEUMANN_CLASS NEUMANN_WIND NEUMANN_PRES MLC_LAT MLC_LON MLC_CLASS MLC_WIND MLC_PRES USA_GUST BOM_GUST BOM_GUST_PER REUNION_GUST REUNION_GUST_PER USA_SEAHGT USA_SEARAD_NE USA_SEARAD_SE USA_SEARAD_SW USA_SEARAD_NW STORM_SPEED STORM_DIR
1936184N11130 1936 21 WP MM NOT_NAMED 1936-07-02 10:00:00 NR 11.0000 130.000 main 458 415 __________O___ -1 11.0000 130.000 7 15 298
1936184N11130 1936 21 WP MM NOT_NAMED 1936-07-02 12:00:00 NR 11.2278 129.567 main 415 344 __________P___ -1 11.2278 129.567 7 14 298
1936184N11130 1936 21 WP MM NOT_NAMED 1936-07-02 15:00:00 NR 11.5709 128.923 main 344 290 __________P___ -1 11.5709 128.923 7 14 299
1936184N11130 1936 21 WP MM NOT_NAMED 1936-07-02 18:00:00 NR 11.9195 128.295 main 290 239 __________P___ -1 11.9195 128.295 7 14 300
1936184N11130 1936 21 WP MM NOT_NAMED 1936-07-02 21:00:00 NR 12.2777 127.693 main 239 218 __________P___ -1 12.2777 127.693 7 14 302
1936184N11130 1936 21 WP MM NOT_NAMED 1936-07-02 22:00:00 NR 12.4000 127.500 main 218 179 __________O___ -1 12.4000 127.500 2 13 304
1936184N11130 1936 21 WP MM NOT_NAMED 1936-07-03 00:00:00 NR 12.6497 127.127 main 179 149 __________P___ -1 12.6497 127.127 2 13 306
1936184N11130 1936 21 WP MM NOT_NAMED 1936-07-03 03:00:00 NR 13.0370 126.600 main 149 140 __________P___ -1 13.0370 126.600 2 13 308
1936184N11130 1936 21 WP MM NOT_NAMED 1936-07-03 06:00:00 NR 13.4396 126.107 main 140 129 __________P___ -1 13.4396 126.107 2 12 312
1936184N11130 1936 21 WP MM NOT_NAMED 1936-07-03 09:00:00 NR 13.8574 125.647 main 129 119 __________P___ -1 13.8574 125.647 2 12 314
1936184N11130 1936 21 WP MM NOT_NAMED 1936-07-03 10:00:00 NR 14.0000 125.500 main 119 92 __________O___ -1 14.0000 125.500 2 12 314
1936184N11130 1936 21 WP MM NOT_NAMED 1936-07-03 12:00:00 NR 14.2621 125.210 main 97 85 __________P___ -1 14.2621 125.210 2 11 315
1936184N11130 1936 21 WP MM NOT_NAMED 1936-07-03 15:00:00 NR 14.6674 124.800 main 95 89 __________P___ -1 14.6674 124.800 2 12 318
1936184N11130 1936 21 WP MM NOT_NAMED 1936-07-03 18:00:00 NR 15.1097 124.410 main 123 123 __________P___ -1 15.1097 124.410 2 12 322
1936184N11130 1936 21 WP MM NOT_NAMED 1936-07-03 21:00:00 NR 15.6139 124.028 main 179 179 __________P___ -1 15.6139 124.028 2 13 325
1936184N11130 1936 21 WP MM NOT_NAMED 1936-07-03 22:00:00 NR 15.8000 123.900 main 187 150 __________O___ -1 15.8000 123.900 2 14 330
1936184N11130 1936 21 WP MM NOT_NAMED 1936-07-04 00:00:00 NR 16.2061 123.676 main 150 85 __________P___ -1 16.2061 123.676 2 15 334
1936184N11130 1936 21 WP MM NOT_NAMED 1936-07-04 03:00:00 NR 16.8784 123.342 main 85 67 __________P___ -1 16.8784 123.342 2 16 334
1936184N11130 1936 21 WP MM NOT_NAMED 1936-07-04 06:00:00 NR 17.6023 122.964 main 71 21 __________P___ -1 17.6023 122.964 2 17 331
1936184N11130 1936 21 WP MM NOT_NAMED 1936-07-04 09:00:00 NR 18.3502 122.489 main 21 10 __________P___ -1 18.3502 122.489 2 18 328
1936184N11130 1936 21 WP MM NOT_NAMED 1936-07-04 10:00:00 NR 18.6000 122.300 main 22 22 __________O___ -1 18.6000 122.300 3 21 319
1936184N11130 1936 21 WP MM NOT_NAMED 1936-07-04 12:00:00 NR 19.1168 121.775 main 79 81 __________P___ -1 19.1168 121.775 3 23 314
1936184N11130 1936 21 WP MM NOT_NAMED 1936-07-04 15:00:00 NR 19.8982 120.877 main 145 145 __________P___ -1 19.8982 120.877 3 23 312
1936184N11130 1936 21 WP MM NOT_NAMED 1936-07-04 18:00:00 NR 20.6433 119.970 main 162 151 __________P___ -1 20.6433 119.970 3 21 312
1936184N11130 1936 21 WP MM NOT_NAMED 1936-07-04 21:00:00 NR 21.3054 119.201 main 168 168 __________P___ -1 21.3054 119.201 3 19 313
1936184N11130 1936 21 WP MM NOT_NAMED 1936-07-04 22:00:00 NR 21.5000 119.000 main 174 173 __________O___ -1 21.5000 119.000 4 14 321
1936184N11130 1936 21 WP MM NOT_NAMED 1936-07-05 00:00:00 NR 21.8278 118.738 main 182 173 __________P___ -1 21.8278 118.738 4 10 329
1936184N11130 1936 21 WP MM NOT_NAMED 1936-07-05 03:00:00 NR 22.2332 118.531 main 187 153 __________P___ -1 22.2332 118.531 4 8 343
1936184N11130 1936 21 WP MM NOT_NAMED 1936-07-05 06:00:00 NR 22.5736 118.493 main 153 135 __________P___ -1 22.5736 118.493 4 7 3
1936184N11130 1936 21 WP MM NOT_NAMED 1936-07-05 09:00:00 NR 22.8916 118.563 main 135 128 __________P___ -1 22.8916 118.563 4 7 13
1936184N11130 1936 21 WP MM NOT_NAMED 1936-07-05 10:00:00 NR 23.0000 118.600 main 128 120 __________O___ -1 23.0000 118.600 4 7 19
1936184N11130 1936 21 WP MM NOT_NAMED 1936-07-05 12:00:00 NR 23.2271 118.682 main 120 101 __________P___ -1 23.2271 118.682 4 8 19
1936184N11130 1936 21 WP MM NOT_NAMED 1936-07-05 15:00:00 NR 23.5905 118.823 main 101 69 __________P___ -1 23.5905 118.823 4 8 20
1936184N11130 1936 21 WP MM NOT_NAMED 1936-07-05 18:00:00 NR 23.9735 118.979 main 69 46 __________P___ -1 23.9735 118.979 4 8 21
1936184N11130 1936 21 WP MM NOT_NAMED 1936-07-05 21:00:00 NR 24.3676 119.144 main 46 51 __________P___ -1 24.3676 119.144 4 8 21
1936184N11130 1936 21 WP MM NOT_NAMED 1936-07-05 22:00:00 NR 24.5000 119.200 main 51 __________O___ -1 24.5000 119.200 4 9 22

デジタル台風データ・検索

IBTrACS Databaseについて

本データベースは、米国NOAAが公開する1842年以降の世界の熱帯低気圧のベストトラックデータアーカイブInternational Best Track Archive for Climate Stewardship (IBTrACS)を、ウェブで閲覧しやすい形式に変換したものです。

最終更新日:2021-12-06